createdAt,value
2023-11-19T00:00:29.150Z,925.45
2023-11-19T00:01:29.289Z,925.42
2023-11-19T00:02:29.266Z,925.45
2023-11-19T00:03:29.233Z,925.44
2023-11-19T00:04:29.257Z,925.46
2023-11-19T00:05:29.243Z,925.46
2023-11-19T00:06:29.446Z,925.47
2023-11-19T00:07:35.278Z,925.48
2023-11-19T00:08:29.279Z,925.56
2023-11-19T00:09:29.302Z,925.66
2023-11-19T00:10:29.328Z,925.78
2023-11-19T00:11:29.330Z,926.09
2023-11-19T00:12:29.343Z,926.61
2023-11-19T00:13:29.355Z,926.75
2023-11-19T00:14:29.393Z,926.71
2023-11-19T00:15:29.388Z,927.20
2023-11-19T00:16:29.417Z,926.55
2023-11-19T00:17:29.699Z,927.84
2023-11-19T00:18:29.526Z,927.66
2023-11-19T00:19:29.484Z,927.78
2023-11-19T00:20:29.471Z,927.08
2023-11-19T00:21:29.485Z,927.28
2023-11-19T00:22:29.531Z,927.51
2023-11-19T00:23:29.611Z,926.50
2023-11-19T00:24:29.508Z,925.90
2023-11-19T00:25:29.556Z,925.52
2023-11-19T00:26:29.538Z,925.52
2023-11-19T00:27:29.567Z,925.44
2023-11-19T00:28:29.598Z,925.33
2023-11-19T00:29:29.591Z,925.34
2023-11-19T00:30:29.593Z,925.45
2023-11-19T00:31:29.679Z,925.54
2023-11-19T00:32:29.614Z,925.57
2023-11-19T00:33:29.658Z,925.64
2023-11-19T00:34:29.637Z,925.63
2023-11-19T00:35:29.815Z,925.79
2023-11-19T00:36:29.670Z,925.78
2023-11-19T00:37:29.740Z,925.79
2023-11-19T00:38:29.698Z,925.97
2023-11-19T00:39:29.705Z,926.02
2023-11-19T00:40:29.797Z,926.27
2023-11-19T00:41:29.732Z,926.55
2023-11-19T00:42:29.726Z,926.34
2023-11-19T00:43:29.774Z,926.26
2023-11-19T00:44:29.753Z,926.24
2023-11-19T00:45:29.779Z,926.21
2023-11-19T00:46:29.858Z,926.20
2023-11-19T00:47:30.084Z,926.27
2023-11-19T00:48:29.797Z,926.27
2023-11-19T00:49:29.858Z,926.35
2023-11-19T00:50:29.821Z,926.45
2023-11-19T00:51:29.842Z,926.43
2023-11-19T00:52:29.896Z,926.42
2023-11-19T00:53:29.963Z,926.42
2023-11-19T00:54:29.873Z,926.54
2023-11-19T00:55:29.908Z,926.64
2023-11-19T00:56:29.888Z,926.69
2023-11-19T00:57:29.841Z,926.67
2023-11-19T00:58:29.924Z,926.61
2023-11-19T00:59:30.010Z,926.55
2023-11-19T01:00:29.860Z,926.46
2023-11-19T01:01:29.941Z,926.42
2023-11-19T01:02:30.097Z,926.35
2023-11-19T01:03:30.031Z,926.27
2023-11-19T01:04:29.952Z,926.21
2023-11-19T01:05:29.926Z,926.21
2023-11-19T01:06:29.927Z,926.27
2023-11-19T01:07:30.001Z,926.33
2023-11-19T01:08:29.951Z,926.33
2023-11-19T01:09:29.967Z,926.29
2023-11-19T01:10:30.249Z,926.24
2023-11-19T01:11:29.986Z,926.22
2023-11-19T01:12:29.991Z,926.12
2023-11-19T01:13:30.022Z,926.00
2023-11-19T01:14:30.011Z,925.95
2023-11-19T01:15:30.183Z,925.93
2023-11-19T01:16:30.123Z,925.93
2023-11-19T01:17:30.127Z,926.01
2023-11-19T01:18:30.081Z,926.03
2023-11-19T01:19:30.198Z,926.03
2023-11-19T01:20:30.091Z,926.07
2023-11-19T01:21:30.304Z,926.16
2023-11-19T01:22:30.146Z,926.28
2023-11-19T01:23:30.121Z,926.37
2023-11-19T01:24:30.195Z,926.45
2023-11-19T01:25:30.164Z,926.61
2023-11-19T01:26:30.202Z,926.63
2023-11-19T01:27:30.271Z,926.66
2023-11-19T01:28:30.218Z,926.72
2023-11-19T01:29:30.269Z,926.78
2023-11-19T01:30:30.284Z,926.78
2023-11-19T01:31:30.229Z,926.80
2023-11-19T01:32:30.293Z,926.79
2023-11-19T01:33:30.251Z,926.80
2023-11-19T01:34:30.339Z,926.81
2023-11-19T01:35:30.267Z,926.86
2023-11-19T01:36:32.307Z,926.88
2023-11-19T01:37:30.360Z,926.91
2023-11-19T01:38:30.538Z,926.88
2023-11-19T01:39:30.319Z,926.87
2023-11-19T01:40:30.370Z,926.90
2023-11-19T01:41:30.338Z,926.97
2023-11-19T01:42:30.337Z,927.05
2023-11-19T01:43:30.379Z,927.15
2023-11-19T01:44:30.360Z,927.24
2023-11-19T01:45:30.588Z,927.27
2023-11-19T01:46:30.447Z,927.31
2023-11-19T01:47:30.466Z,927.35
2023-11-19T01:48:30.401Z,927.40
2023-11-19T01:49:30.482Z,927.45
2023-11-19T01:50:30.422Z,927.46
2023-11-19T01:51:30.504Z,927.40
2023-11-19T01:52:30.524Z,927.33
2023-11-19T01:53:30.466Z,927.19
2023-11-19T01:54:30.476Z,927.00
2023-11-19T01:55:30.529Z,926.94
2023-11-19T01:56:30.593Z,926.81
2023-11-19T01:57:30.520Z,926.77
2023-11-19T01:58:30.548Z,926.79
2023-11-19T01:59:30.539Z,926.76
2023-11-19T02:00:30.540Z,926.74
2023-11-19T02:01:30.647Z,926.68
2023-11-19T02:02:30.906Z,926.70
2023-11-19T02:03:30.892Z,926.66
2023-11-19T02:04:30.684Z,926.60
2023-11-19T02:05:30.607Z,926.54
2023-11-19T02:06:30.608Z,926.54
2023-11-19T02:07:30.625Z,926.56
2023-11-19T02:08:30.631Z,926.59
2023-11-19T02:09:30.656Z,926.55
2023-11-19T02:10:30.686Z,926.45
2023-11-19T02:11:30.750Z,926.39
2023-11-19T02:12:30.677Z,926.25
2023-11-19T02:13:30.732Z,926.26
2023-11-19T02:14:30.697Z,926.30
2023-11-19T02:15:30.722Z,926.19
2023-11-19T02:16:30.766Z,926.11
2023-11-19T02:17:30.760Z,926.11
2023-11-19T02:18:30.751Z,926.07
2023-11-19T02:19:30.782Z,926.06
2023-11-19T02:20:30.773Z,926.11
2023-11-19T02:21:30.821Z,926.14
2023-11-19T02:22:30.810Z,926.09
2023-11-19T02:23:30.820Z,926.08
2023-11-19T02:24:31.093Z,926.06
2023-11-19T02:25:30.879Z,926.03
2023-11-19T02:26:30.854Z,926.00
2023-11-19T02:27:30.855Z,926.01
2023-11-19T02:28:30.897Z,926.02
2023-11-19T02:29:30.884Z,925.97
2023-11-19T02:30:30.887Z,925.90
2023-11-19T02:31:31.053Z,925.89
2023-11-19T02:32:30.963Z,925.84
2023-11-19T02:33:30.931Z,925.79
2023-11-19T02:34:31.016Z,925.76
2023-11-19T02:35:30.966Z,925.66
2023-11-19T02:36:30.961Z,925.61
2023-11-19T02:37:30.993Z,925.53
2023-11-19T02:38:30.992Z,925.54
2023-11-19T02:39:30.984Z,925.50
2023-11-19T02:40:31.045Z,925.46
2023-11-19T02:41:31.010Z,925.49
2023-11-19T02:42:31.033Z,925.52
2023-11-19T02:43:31.074Z,925.51
2023-11-19T02:44:31.058Z,925.55
2023-11-19T02:45:31.086Z,925.54
2023-11-19T02:46:31.108Z,925.57
2023-11-19T02:47:31.107Z,925.55
2023-11-19T02:48:31.097Z,925.59
2023-11-19T02:49:31.120Z,925.55
2023-11-19T02:50:31.122Z,925.58
2023-11-19T02:51:31.151Z,925.54
2023-11-19T02:52:31.174Z,925.56
2023-11-19T02:53:31.152Z,925.59
2023-11-19T02:54:31.165Z,925.63
2023-11-19T02:55:31.196Z,925.73
2023-11-19T02:56:31.195Z,925.87
2023-11-19T02:57:31.195Z,926.04
2023-11-19T02:58:31.260Z,926.00
2023-11-19T02:59:31.226Z,926.02
2023-11-19T03:00:31.232Z,926.05
2023-11-19T03:01:32.048Z,926.05
2023-11-19T03:02:31.356Z,926.01
2023-11-19T03:03:31.384Z,925.90
2023-11-19T03:04:31.336Z,925.84
2023-11-19T03:05:31.335Z,925.89
2023-11-19T03:06:31.320Z,925.90
2023-11-19T03:07:31.340Z,925.93
2023-11-19T03:08:31.334Z,925.86
2023-11-19T03:09:31.332Z,925.79
2023-11-19T03:10:31.450Z,925.81
2023-11-19T03:11:31.366Z,925.89
2023-11-19T03:12:31.380Z,925.98
2023-11-19T03:13:31.401Z,926.07
2023-11-19T03:14:31.397Z,926.12
2023-11-19T03:15:31.407Z,926.05
2023-11-19T03:16:31.550Z,926.06
2023-11-19T03:17:31.461Z,926.08
2023-11-19T03:18:31.459Z,926.17
2023-11-19T03:19:31.467Z,926.26
2023-11-19T03:20:31.508Z,926.26
2023-11-19T03:21:31.470Z,926.38
2023-11-19T03:22:31.498Z,926.50
2023-11-19T03:23:31.503Z,926.50
2023-11-19T03:24:31.511Z,926.54
2023-11-19T03:25:31.561Z,926.58
2023-11-19T03:26:31.546Z,926.61
2023-11-19T03:27:31.557Z,926.59
2023-11-19T03:28:31.586Z,926.61
2023-11-19T03:29:31.592Z,926.61
2023-11-19T03:30:34.521Z,926.51
2023-11-19T03:31:31.630Z,926.63
2023-11-19T03:32:31.657Z,926.60
2023-11-19T03:33:31.641Z,926.63
2023-11-19T03:34:31.657Z,926.65
2023-11-19T03:35:31.732Z,926.65
2023-11-19T03:36:31.685Z,926.61
2023-11-19T03:37:31.664Z,926.56
2023-11-19T03:38:31.675Z,926.56
2023-11-19T03:39:31.681Z,926.47
2023-11-19T03:40:31.795Z,926.42
2023-11-19T03:41:41.896Z,926.34
2023-11-19T03:42:31.790Z,926.30
2023-11-19T03:43:31.738Z,926.36
2023-11-19T03:44:31.757Z,926.35
2023-11-19T03:45:31.754Z,926.35
2023-11-19T03:46:31.881Z,926.33
2023-11-19T03:47:31.793Z,926.29
2023-11-19T03:48:31.794Z,926.19
2023-11-19T03:49:31.816Z,926.16
2023-11-19T03:50:31.832Z,926.12
2023-11-19T03:51:31.815Z,926.06
2023-11-19T03:53:31.843Z,925.94
2023-11-19T03:54:31.861Z,925.91
2023-11-19T03:55:31.885Z,925.83
2023-11-19T03:56:31.894Z,925.84
2023-11-19T03:57:31.898Z,925.72
2023-11-19T03:58:31.930Z,925.68
2023-11-19T03:59:31.908Z,925.64
2023-11-19T04:00:31.949Z,925.65
2023-11-19T04:01:32.064Z,925.58
2023-11-19T04:02:31.981Z,925.49
2023-11-19T04:03:32.005Z,925.47
2023-11-19T04:04:32.021Z,925.45
2023-11-19T04:05:31.983Z,925.40
2023-11-19T04:06:32.002Z,925.42
2023-11-19T04:07:32.009Z,925.36
2023-11-19T04:08:32.037Z,925.27
2023-11-19T04:09:32.027Z,925.23
2023-11-19T04:10:32.101Z,925.23
2023-11-19T04:11:32.053Z,925.13
2023-11-19T04:12:32.071Z,925.11
2023-11-19T04:13:32.094Z,925.05
2023-11-19T04:14:32.105Z,924.95
2023-11-19T04:15:32.105Z,924.98
2023-11-19T04:16:32.158Z,924.99
2023-11-19T04:17:32.128Z,924.97
2023-11-19T04:18:32.132Z,925.00
2023-11-19T04:19:32.210Z,925.02
2023-11-19T04:20:32.153Z,924.92
2023-11-19T04:21:32.180Z,924.89
2023-11-19T04:22:32.195Z,924.90
2023-11-19T04:23:32.182Z,924.90
2023-11-19T04:24:32.201Z,924.89
2023-11-19T04:25:32.263Z,924.87
2023-11-19T04:26:32.261Z,924.84
2023-11-19T04:27:32.228Z,924.87
2023-11-19T04:28:32.274Z,924.76
2023-11-19T04:29:32.254Z,924.63
2023-11-19T04:30:32.276Z,924.62
